Time;durP1;ratioP1;P1;durP2;ratioP2;P2;SDS_P1;SDS_P2;PMS_P1;PMS_P2;Temp;Humidity;BMP_temperature;BMP_pressure;BME280_temperature;BME280_humidity;BME280_pressure;Samples;Min_cycle;Max_cycle;Signal;HPM_P1;HPM_P2
2023/02/21 02:16:23;;;;;;;4.53;1.58;;;3.90;99.90;;;;;;5019294;28;20029;-69
2023/02/21 02:19:05;;;;;;;1.60;1.30;;;3.90;99.90;;;;;;5016138;28;20048;-69
2023/02/21 02:21:47;;;;;;;3.80;1.70;;;3.80;99.90;;;;;;5019578;28;20109;-69
2023/02/21 02:24:31;;;;;;;3.17;1.42;;;3.70;99.90;;;;;;5016848;28;20026;-69
2023/02/21 02:27:12;;;;;;;4.25;2.05;;;3.60;99.90;;;;;;5021737;28;20026;-69
2023/02/21 02:29:39;;;;;;;3.45;1.92;;;3.50;99.90;;;;;;5019965;28;20052;-69
2023/02/21 02:32:30;;;;;;;5.63;1.92;;;3.50;99.90;;;;;;5014242;28;20033;-69
2023/02/21 02:35:21;;;;;;;3.50;1.98;;;3.50;99.90;;;;;;5013830;28;20114;-69
2023/02/21 02:38:02;;;;;;;4.28;2.08;;;3.40;99.90;;;;;;5018096;28;20037;-70
2023/02/21 02:40:53;;;;;;;5.00;2.10;;;3.40;99.90;;;;;;5019976;28;20033;-69
2023/02/21 02:43:27;;;;;;;5.93;1.70;;;3.40;99.90;;;;;;5014845;28;20116;-69
2023/02/21 02:46:03;;;;;;;5.70;2.08;;;3.40;99.90;;;;;;5016734;28;20313;-69
2023/02/21 02:49:10;;;;;;;7.20;2.15;;;3.40;99.90;;;;;;5019329;28;20048;-68
2023/02/21 02:51:36;;;;;;;2.45;1.80;;;3.40;99.90;;;;;;5010723;28;20121;-69
2023/02/21 02:54:02;;;;;;;2.75;1.60;;;3.40;99.90;;;;;;5018522;28;20188;-69
2023/02/21 02:56:28;;;;;;;5.65;2.03;;;3.30;99.90;;;;;;5015118;28;20033;-69
2023/02/21 02:59:07;;;;;;;5.05;1.80;;;3.30;99.90;;;;;;5022613;28;20528;-69
2023/02/21 03:01:48;;;;;;;2.50;1.67;;;3.30;99.90;;;;;;5021364;28;20096;-69
2023/02/21 03:04:35;;;;;;;4.45;1.77;;;3.30;99.90;;;;;;5019071;28;20124;-69
2023/02/21 03:07:22;;;;;;;4.50;1.55;;;3.20;99.90;;;;;;5027760;28;20290;-69
2023/02/21 03:10:22;;;;;;;4.68;1.38;;;3.10;99.90;;;;;;5026632;28;20450;-69
2023/02/21 03:13:12;;;;;;;3.50;1.70;;;3.10;99.90;;;;;;5030938;28;20544;-69
2023/02/21 03:15:49;;;;;;;3.53;1.58;;;3.00;99.90;;;;;;5022470;28;20470;-68
2023/02/21 03:18:38;;;;;;;4.22;1.70;;;3.00;99.90;;;;;;5023208;28;20668;-69
2023/02/21 03:21:10;;;;;;;2.75;1.50;;;2.90;99.90;;;;;;5017671;28;20018;-69
2023/02/21 03:23:38;;;;;;;3.67;1.40;;;2.90;99.90;;;;;;5033287;28;20029;-69
2023/02/21 03:26:06;;;;;;;3.80;1.70;;;2.80;99.90;;;;;;5027534;28;20029;-69
2023/02/21 03:28:33;;;;;;;3.08;1.75;;;2.80;99.90;;;;;;5020040;28;20450;-69
2023/02/21 03:31:02;;;;;;;4.07;1.70;;;2.80;99.90;;;;;;5024311;28;20029;-69
2023/02/21 03:33:28;;;;;;;2.78;1.60;;;2.80;99.90;;;;;;5031357;28;20104;-69
2023/02/21 03:35:54;;;;;;;3.65;1.52;;;2.80;99.90;;;;;;5020683;28;20455;-69
2023/02/21 03:38:20;;;;;;;5.25;1.48;;;2.80;99.90;;;;;;5018647;28;20045;-69
2023/02/21 03:40:45;;;;;;;6.82;1.85;;;2.80;99.90;;;;;;5001596;28;20033;-69
2023/02/21 03:43:11;;;;;;;3.03;1.83;;;2.70;99.90;;;;;;5019953;28;20101;-69
2023/02/21 03:45:36;;;;;;;4.90;1.70;;;2.60;99.90;;;;;;5018423;28;20022;-69
2023/02/21 03:48:03;;;;;;;2.97;1.58;;;2.60;99.90;;;;;;5018298;28;20095;-69
2023/02/21 03:50:28;;;;;;;2.67;1.70;;;2.60;99.90;;;;;;5024748;28;20394;-69
2023/02/21 03:52:54;;;;;;;3.15;1.60;;;2.60;99.90;;;;;;5019605;28;20030;-69
2023/02/21 03:55:20;;;;;;;2.90;1.63;;;2.60;99.90;;;;;;5019992;28;20106;-69
2023/02/21 03:57:46;;;;;;;4.13;1.73;;;2.50;99.90;;;;;;5017908;28;20105;-69
2023/02/21 04:00:13;;;;;;;5.35;1.73;;;2.40;99.90;;;;;;5019725;28;20075;-68
2023/02/21 04:02:38;;;;;;;3.20;1.75;;;2.40;99.90;;;;;;5020009;28;20478;-69
2023/02/21 04:05:04;;;;;;;4.13;1.83;;;2.40;99.90;;;;;;5024418;28;20029;-69
2023/02/21 04:07:30;;;;;;;6.85;1.98;;;2.40;99.90;;;;;;5026203;28;20041;-69
2023/02/21 04:09:56;;;;;;;6.10;1.85;;;2.30;99.90;;;;;;5016185;28;20034;-69
2023/02/21 04:12:21;;;;;;;4.70;2.10;;;2.30;99.90;;;;;;5014291;28;20046;-70
2023/02/21 04:14:47;;;;;;;4.85;2.15;;;2.30;99.90;;;;;;5021738;28;20041;-70
2023/02/21 04:17:12;;;;;;;7.05;2.38;;;2.20;99.90;;;;;;5006896;28;20103;-70
2023/02/21 04:19:38;;;;;;;4.70;1.73;;;2.20;99.90;;;;;;5021880;28;20546;-69
2023/02/21 04:22:04;;;;;;;3.17;2.00;;;2.20;99.90;;;;;;5025393;28;20040;-69
2023/02/21 04:24:30;;;;;;;5.60;2.13;;;2.20;99.90;;;;;;5021259;28;20030;-72
2023/02/21 04:26:55;;;;;;;5.97;3.35;;;2.20;99.90;;;;;;5027458;28;20040;-69
2023/02/21 04:29:21;;;;;;;6.82;3.83;;;2.30;99.90;;;;;;5020914;28;20505;-69
2023/02/21 04:31:46;;;;;;;5.95;3.33;;;2.30;99.90;;;;;;5014647;28;20072;-69
2023/02/21 04:34:12;;;;;;;14.27;5.10;;;2.30;99.90;;;;;;5015443;28;20045;-69
2023/02/21 04:36:39;;;;;;;8.98;4.55;;;2.50;99.90;;;;;;5023754;28;20034;-69
2023/02/21 04:39:05;;;;;;;8.88;4.10;;;2.50;99.90;;;;;;5004260;28;20403;-70
2023/02/21 04:41:31;;;;;;;8.82;4.20;;;2.40;99.90;;;;;;5015275;28;20025;-70
2023/02/21 04:43:57;;;;;;;11.65;4.00;;;2.40;99.90;;;;;;5024681;28;20092;-69
2023/02/21 04:46:22;;;;;;;10.40;4.22;;;2.30;99.90;;;;;;5014017;28;20022;-69
2023/02/21 04:48:50;;;;;;;12.27;5.40;;;2.20;99.90;;;;;;5014778;28;20030;-70
2023/02/21 04:51:19;;;;;;;13.07;5.38;;;2.20;99.90;;;;;;5013061;28;20521;-70
2023/02/21 04:53:47;;;;;;;11.13;5.75;;;2.20;99.90;;;;;;5017440;28;20052;-72
2023/02/21 04:56:12;;;;;;;10.60;4.95;;;2.20;99.90;;;;;;5016151;28;20029;-69
2023/02/21 04:58:38;;;;;;;9.40;4.60;;;2.20;99.90;;;;;;5027487;28;20071;-69
2023/02/21 05:01:04;;;;;;;11.55;4.70;;;2.20;99.90;;;;;;5016432;28;20057;-70
2023/02/21 05:03:30;;;;;;;9.88;4.55;;;2.10;99.90;;;;;;5014929;28;20065;-69
2023/02/21 05:05:55;;;;;;;8.45;4.20;;;2.10;99.90;;;;;;5014542;28;20026;-69
2023/02/21 05:08:22;;;;;;;7.15;3.67;;;2.10;99.90;;;;;;5022642;28;20427;-69
2023/02/21 05:10:48;;;;;;;9.65;4.18;;;2.10;99.90;;;;;;5014792;28;20033;-69
2023/02/21 05:13:14;;;;;;;8.45;4.00;;;2.10;99.90;;;;;;5014186;28;20046;-70
2023/02/21 05:15:40;;;;;;;6.45;3.53;;;2.10;99.90;;;;;;5011611;28;20022;-71
2023/02/21 05:18:06;;;;;;;6.50;3.47;;;2.10;99.90;;;;;;5012772;28;20356;-69
2023/02/21 05:20:31;;;;;;;6.05;3.55;;;2.10;99.90;;;;;;5016424;28;20025;-69
2023/02/21 05:22:57;;;;;;;7.63;3.25;;;2.00;99.90;;;;;;5017986;28;20049;-68
2023/02/21 05:25:23;;;;;;;5.63;2.97;;;1.90;99.90;;;;;;5012294;28;20037;-68
2023/02/21 05:27:50;;;;;;;7.97;3.03;;;1.90;99.90;;;;;;5017934;28;20088;-68
2023/02/21 05:30:18;;;;;;;5.65;3.45;;;1.90;99.90;;;;;;5021133;28;20562;-70
2023/02/21 05:32:43;;;;;;;6.93;2.92;;;1.90;99.90;;;;;;5016380;28;20026;-73
2023/02/21 05:35:10;;;;;;;6.07;3.63;;;1.80;99.90;;;;;;5014673;28;20037;-70
2023/02/21 05:37:36;;;;;;;7.55;3.97;;;1.80;99.90;;;;;;5015081;28;20112;-71
2023/02/21 05:40:04;;;;;;;11.02;4.10;;;1.80;99.90;;;;;;5014195;28;20269;-68
2023/02/21 05:42:29;;;;;;;9.73;4.45;;;1.80;99.90;;;;;;5015912;28;20144;-70
2023/02/21 05:44:55;;;;;;;7.55;4.78;;;1.70;99.90;;;;;;5017110;28;20112;-68
2023/02/21 05:47:20;;;;;;;7.72;4.00;;;1.70;99.90;;;;;;5016010;28;20120;-69
2023/02/21 05:49:46;;;;;;;9.77;3.90;;;1.60;99.90;;;;;;5018563;28;20033;-68
2023/02/21 05:52:14;;;;;;;9.40;4.00;;;1.60;99.90;;;;;;5016272;28;20518;-70
2023/02/21 05:54:39;;;;;;;8.57;3.65;;;1.50;99.90;;;;;;5018857;28;20108;-72
2023/02/21 05:57:05;;;;;;;6.30;3.15;;;1.50;99.90;;;;;;5023528;28;20505;-70
2023/02/21 05:59:31;;;;;;;8.07;3.50;;;1.50;99.90;;;;;;5012541;28;20525;-71
2023/02/21 06:01:56;;;;;;;5.72;2.72;;;1.60;99.90;;;;;;5012075;28;20069;-70
2023/02/21 06:04:23;;;;;;;8.25;3.75;;;1.60;99.90;;;;;;5017018;28;20042;-70
2023/02/21 06:06:49;;;;;;;6.90;2.13;;;1.70;99.90;;;;;;5023199;28;20025;-70
2023/02/21 06:09:15;;;;;;;5.43;2.10;;;1.80;99.90;;;;;;5016977;28;20505;-70
2023/02/21 06:11:41;;;;;;;5.05;2.20;;;1.90;99.90;;;;;;5028680;28;20112;-71
2023/02/21 06:14:13;;;;;;;11.60;3.08;;;2.10;99.90;;;;;;5010861;28;20104;-69
2023/02/21 06:16:39;;;;;;;6.20;2.08;;;2.20;99.90;;;;;;5010951;28;20124;-69
2023/02/21 06:19:06;;;;;;;4.75;1.90;;;2.20;99.90;;;;;;5016258;28;20184;-71
2023/02/21 06:21:32;;;;;;;5.38;2.95;;;2.10;99.90;;;;;;5012502;28;20037;-70
2023/02/21 06:23:58;;;;;;;7.10;2.40;;;2.10;99.90;;;;;;5022617;28;20033;-69
2023/02/21 06:26:24;;;;;;;8.18;2.50;;;2.10;99.90;;;;;;5016400;28;20026;-69
2023/02/21 06:28:50;;;;;;;7.60;2.22;;;2.10;99.90;;;;;;5021849;28;20045;-69
2023/02/21 06:31:17;;;;;;;8.43;2.67;;;2.10;99.90;;;;;;5012339;28;20034;-69
2023/02/21 06:33:43;;;;;;;9.25;3.20;;;2.20;99.90;;;;;;5017317;28;20072;-71
2023/02/21 06:36:14;;;;;;;12.90;3.67;;;2.40;99.90;;;;;;5010668;28;20100;-69
2023/02/21 06:38:44;;;;;;;6.13;3.50;;;2.40;99.90;;;;;;5013770;28;20483;-71
2023/02/21 06:41:10;;;;;;;9.05;3.53;;;2.40;99.90;;;;;;5012363;28;20041;-71
2023/02/21 06:43:36;;;;;;;9.00;4.80;;;2.40;99.90;;;;;;5017329;28;20037;-72
2023/02/21 06:46:03;;;;;;;7.88;4.32;;;2.30;99.90;;;;;;5014953;28;20097;-73
2023/02/21 06:48:29;;;;;;;8.60;4.72;;;2.30;99.90;;;;;;5015936;28;20183;-71
2023/02/21 06:50:54;;;;;;;8.25;3.83;;;2.20;99.90;;;;;;5013681;28;20462;-71
2023/02/21 06:53:20;;;;;;;11.45;5.15;;;2.10;99.90;;;;;;5026442;28;20109;-70
2023/02/21 06:55:46;;;;;;;9.30;4.30;;;2.00;99.90;;;;;;5016301;28;20033;-71
2023/02/21 06:58:12;;;;;;;10.07;4.70;;;2.00;99.90;;;;;;5021502;28;20387;-71
2023/02/21 07:00:38;;;;;;;14.13;4.25;;;2.10;99.90;;;;;;5029409;28;20030;-70
2023/02/21 07:03:03;;;;;;;11.38;4.38;;;2.20;99.90;;;;;;5017528;28;20106;-70
2023/02/21 07:05:33;;;;;;;9.45;3.72;;;2.30;99.90;;;;;;5015134;28;20420;-70
2023/02/21 07:08:02;;;;;;;6.68;3.22;;;2.40;99.90;;;;;;5023530;28;20047;-70
2023/02/21 07:10:28;;;;;;;6.07;3.42;;;2.50;99.90;;;;;;5023522;28;20120;-69
2023/02/21 07:12:55;;;;;;;8.55;3.42;;;2.60;99.90;;;;;;5032338;28;20042;-69
2023/02/21 07:15:21;;;;;;;5.28;3.17;;;2.60;99.90;;;;;;5020530;28;20072;-70
2023/02/21 07:17:47;;;;;;;8.05;3.28;;;2.60;99.90;;;;;;5019550;28;20172;-72
2023/02/21 07:20:12;;;;;;;8.25;3.63;;;2.60;99.90;;;;;;5014641;28;20502;-70
2023/02/21 07:22:38;;;;;;;10.18;3.55;;;2.50;99.90;;;;;;5016586;28;20112;-70
2023/02/21 07:25:04;;;;;;;5.93;2.80;;;2.60;99.90;;;;;;5012763;28;20052;-72
2023/02/21 07:27:29;;;;;;;7.43;2.95;;;2.50;99.90;;;;;;5001465;28;20113;-73
2023/02/21 07:29:55;;;;;;;4.60;2.25;;;2.60;99.90;;;;;;5016357;28;20484;-73
2023/02/21 07:32:21;;;;;;;10.70;3.47;;;2.60;99.90;;;;;;5026978;28;20514;-73
2023/02/21 07:34:47;;;;;;;12.05;4.00;;;2.80;99.90;;;;;;5016892;28;20030;-73
2023/02/21 07:37:13;;;;;;;12.23;4.88;;;2.90;99.90;;;;;;5019737;28;20382;-74
2023/02/21 07:39:39;;;;;;;15.43;4.50;;;3.00;99.90;;;;;;5026752;28;20033;-70
2023/02/21 07:42:06;;;;;;;14.80;5.35;;;3.10;99.90;;;;;;5031137;28;20045;-70
2023/02/21 07:44:32;;;;;;;14.18;5.60;;;3.20;99.90;;;;;;5018233;28;20467;-71
2023/02/21 07:46:58;;;;;;;12.75;6.00;;;3.30;99.90;;;;;;5026698;28;20029;-70
2023/02/21 07:49:24;;;;;;;16.40;5.85;;;3.40;99.90;;;;;;5022305;28;20042;-70
2023/02/21 07:51:49;;;;;;;8.85;4.82;;;3.50;99.90;;;;;;5021673;28;20025;-71
2023/02/21 07:54:16;;;;;;;12.68;5.35;;;3.50;99.90;;;;;;5016815;28;20510;-70
2023/02/21 07:56:43;;;;;;;8.32;4.93;;;3.60;99.90;;;;;;5028149;28;20104;-76
2023/02/21 07:59:09;;;;;;;10.95;4.95;;;3.70;99.90;;;;;;5015277;28;20135;-70
2023/02/21 08:01:35;;;;;;;9.45;4.65;;;3.70;99.90;;;;;;5020769;28;20030;-69
2023/02/21 08:04:00;;;;;;;7.00;3.70;;;3.80;99.90;;;;;;5021728;28;20052;-70
2023/02/21 08:06:26;;;;;;;8.25;3.70;;;4.00;99.90;;;;;;5000638;28;20495;-70
2023/02/21 08:08:51;;;;;;;8.00;3.90;;;4.20;99.90;;;;;;5011824;28;20030;-70
2023/02/21 08:11:17;;;;;;;9.80;4.43;;;4.30;99.90;;;;;;5028041;28;20060;-70
2023/02/21 08:13:43;;;;;;;9.95;4.70;;;4.30;99.90;;;;;;5015492;28;20045;-73
2023/02/21 08:16:08;;;;;;;8.68;4.20;;;4.40;99.90;;;;;;5022389;28;20428;-70
2023/02/21 08:18:34;;;;;;;8.45;4.30;;;4.50;99.90;;;;;;5024269;28;20030;-70
2023/02/21 08:20:59;;;;;;;6.68;3.88;;;4.60;99.90;;;;;;5015775;28;20770;-70
2023/02/21 08:23:25;;;;;;;7.65;3.70;;;4.70;99.90;;;;;;4998443;28;20077;-69
2023/02/21 08:25:50;;;;;;;8.63;3.78;;;4.80;99.90;;;;;;5021997;28;20359;-70
2023/02/21 08:28:16;;;;;;;6.72;4.18;;;4.80;99.90;;;;;;5026118;28;20378;-70
2023/02/21 08:30:42;;;;;;;9.13;4.30;;;5.00;99.90;;;;;;5022359;28;20084;-72
2023/02/21 08:33:08;;;;;;;11.70;3.88;;;5.10;99.90;;;;;;5021505;28;20029;-69
2023/02/21 08:35:34;;;;;;;8.35;4.15;;;5.20;99.90;;;;;;5016803;28;20037;-69
2023/02/21 08:38:02;;;;;;;8.70;5.10;;;5.40;99.90;;;;;;5012794;28;20029;-69
2023/02/21 08:40:31;;;;;;;10.43;4.38;;;5.50;99.90;;;;;;5013500;28;20368;-70
2023/02/21 08:42:58;;;;;;;7.28;3.80;;;5.70;99.90;;;;;;5022360;28;20040;-70
2023/02/21 08:45:25;;;;;;;7.68;4.20;;;5.80;99.90;;;;;;5018238;28;20037;-70
2023/02/21 08:47:52;;;;;;;10.02;4.47;;;5.90;99.90;;;;;;5020051;28;20391;-70
2023/02/21 08:50:19;;;;;;;9.43;3.42;;;6.00;99.90;;;;;;5014386;28;20044;-69
2023/02/21 08:52:46;;;;;;;7.65;3.85;;;6.20;99.90;;;;;;4999000;28;20569;-70
2023/02/21 08:55:11;;;;;;;6.97;3.97;;;6.30;99.90;;;;;;5015130;28;20164;-70
2023/02/21 08:57:37;;;;;;;6.13;3.47;;;6.40;99.90;;;;;;5017482;28;20105;-70
2023/02/21 09:00:09;;;;;;;7.10;4.63;;;6.50;99.90;;;;;;5023594;28;20028;-69
2023/02/21 09:02:38;;;;;;;5.82;3.83;;;6.60;99.90;;;;;;5015733;28;20028;-70
2023/02/21 09:05:12;;;;;;;8.40;4.03;;;6.70;99.90;;;;;;5020731;28;20474;-70
2023/02/21 09:07:38;;;;;;;5.50;3.47;;;6.90;99.90;;;;;;5005510;28;20295;-70
2023/02/21 09:10:06;;;;;;;10.88;3.92;;;7.10;99.90;;;;;;5012610;28;20475;-69
2023/02/21 09:12:31;;;;;;;8.80;4.03;;;7.30;99.90;;;;;;5014403;28;20438;-70
2023/02/21 09:14:57;;;;;;;7.65;4.03;;;7.40;99.90;;;;;;5016747;28;20029;-69
2023/02/21 09:17:23;;;;;;;10.18;4.82;;;7.60;99.90;;;;;;5020967;28;20058;-70
2023/02/21 09:19:48;;;;;;;15.63;4.35;;;7.70;99.90;;;;;;5015570;28;20164;-70
2023/02/21 09:22:15;;;;;;;10.85;4.53;;;7.90;99.90;;;;;;5018201;28;20030;-70
2023/02/21 09:24:40;;;;;;;12.57;4.25;;;8.10;99.90;;;;;;5025591;28;20386;-73
2023/02/21 09:27:06;;;;;;;12.32;4.13;;;8.20;99.90;;;;;;5017898;28;20026;-70
2023/02/21 09:29:34;;;;;;;11.30;3.67;;;8.20;99.90;;;;;;5020999;28;20032;-70
2023/02/21 09:32:01;;;;;;;4.60;2.90;;;8.40;99.90;;;;;;5007012;28;20143;-70
2023/02/21 09:34:26;;;;;;;10.13;4.10;;;8.50;99.90;;;;;;5016879;28;20542;-70
2023/02/21 09:36:53;;;;;;;10.18;4.97;;;8.70;99.90;;;;;;5021973;28;20120;-70
2023/02/21 09:39:20;;;;;;;8.77;3.60;;;8.90;99.90;;;;;;5012051;28;20033;-69
2023/02/21 09:41:46;;;;;;;9.98;4.43;;;9.00;99.90;;;;;;5020824;28;20056;-70
2023/02/21 09:44:22;;;;;;;14.57;4.30;;;9.20;99.90;;;;;;5013318;28;20030;-69
2023/02/21 09:46:49;;;;;;;9.13;3.95;;;9.30;99.90;;;;;;5024351;28;20433;-70
2023/02/21 09:49:18;;;;;;;8.95;4.78;;;9.40;99.90;;;;;;5015666;28;20140;-71
2023/02/21 09:51:44;;;;;;;8.75;4.15;;;9.50;99.90;;;;;;5016922;28;20048;-73
2023/02/21 09:54:32;;;;;;;6.53;3.75;;;9.70;99.90;;;;;;5017286;28;20022;-70
2023/02/21 09:57:02;;;;;;;10.18;3.50;;;9.80;99.90;;;;;;5017218;28;20033;-69
2023/02/21 09:59:28;;;;;;;8.77;4.10;;;9.90;99.90;;;;;;5019268;28;20033;-68
2023/02/21 10:02:09;;;;;;;8.40;4.03;;;10.00;99.90;;;;;;5016191;28;20101;-68
2023/02/21 10:04:37;;;;;;;9.00;4.15;;;10.10;99.90;;;;;;5010839;28;20026;-68
2023/02/21 10:07:20;;;;;;;8.32;4.30;;;10.30;99.90;;;;;;5012773;28;20274;-69
2023/02/21 10:10:10;;;;;;;7.97;3.90;;;10.30;99.90;;;;;;5013081;28;20044;-69
2023/02/21 10:12:50;;;;;;;8.48;4.15;;;10.50;99.90;;;;;;5016685;28;20053;-68
2023/02/21 10:15:19;;;;;;;10.48;4.93;;;10.50;99.90;;;;;;5011732;28;20052;-69
2023/02/21 10:17:49;;;;;;;7.30;5.15;;;10.70;99.90;;;;;;5015287;28;20041;-69
2023/02/21 10:20:27;;;;;;;9.70;4.90;;;10.90;99.90;;;;;;5020507;28;20114;-68
2023/02/21 10:22:55;;;;;;;10.90;5.32;;;11.00;99.90;;;;;;5023327;28;20129;-69
2023/02/21 10:25:32;;;;;;;10.07;5.25;;;11.20;99.90;;;;;;5019956;28;20776;-69
2023/02/21 10:27:59;;;;;;;10.23;5.03;;;11.40;99.90;;;;;;5023250;28;20025;-69
2023/02/21 10:30:34;;;;;;;11.82;4.65;;;11.40;99.90;;;;;;5013404;28;20037;-68
2023/02/21 10:33:05;;;;;;;10.05;4.35;;;11.60;99.90;;;;;;5021134;28;20133;-68
2023/02/21 10:35:32;;;;;;;11.57;3.53;;;11.70;99.90;;;;;;5023374;28;20030;-68
2023/02/21 10:38:01;;;;;;;8.55;3.50;;;11.80;99.90;;;;;;5014374;28;20702;-68
2023/02/21 10:40:47;;;;;;;7.22;3.60;;;11.90;99.90;;;;;;5017230;28;20117;-68
2023/02/21 10:43:12;;;;;;;8.80;3.88;;;12.00;99.90;;;;;;5025837;28;20542;-68
2023/02/21 10:45:54;;;;;;;5.53;2.35;;;12.10;99.90;;;;;;5020326;28;20113;-68
2023/02/21 10:48:25;;;;;;;7.13;2.38;;;12.10;99.90;;;;;;5008164;28;20474;-68
2023/02/21 10:50:56;;;;;;;7.45;2.70;;;12.10;99.90;;;;;;5016687;28;20033;-68
2023/02/21 10:53:34;;;;;;;6.55;2.78;;;12.20;99.90;;;;;;5023284;28;20434;-68
2023/02/21 10:56:15;;;;;;;4.40;2.90;;;12.20;99.90;;;;;;5017039;28;20037;-68
2023/02/21 10:59:04;;;;;;;5.50;2.92;;;12.30;99.90;;;;;;5022917;28;20118;-71
2023/02/21 11:01:44;;;;;;;9.90;3.40;;;12.60;99.90;;;;;;5016013;28;20062;-68
2023/02/21 11:04:18;;;;;;;11.30;3.97;;;12.70;99.90;;;;;;5018066;28;20038;-68
2023/02/21 11:07:07;;;;;;;6.50;3.05;;;12.90;99.40;;;;;;5020158;28;20028;-71
2023/02/21 11:09:44;;;;;;;5.82;3.47;;;12.90;99.50;;;;;;5017432;28;20038;-68
2023/02/21 11:12:31;;;;;;;7.60;3.47;;;12.90;99.80;;;;;;5019700;28;20088;-69
2023/02/21 11:14:56;;;;;;;6.63;3.50;;;13.00;99.20;;;;;;5018671;28;20025;-68
2023/02/21 11:17:31;;;;;;;11.38;3.42;;;13.10;99.30;;;;;;5023122;28;20459;-68
2023/02/21 11:20:17;;;;;;;11.82;3.92;;;13.20;99.50;;;;;;5019393;28;20041;-69
2023/02/21 11:22:45;;;;;;;5.93;3.53;;;13.30;98.90;;;;;;5019155;28;20037;-71
2023/02/21 11:25:11;;;;;;;6.75;3.65;;;13.30;98.90;;;;;;5027599;28;20026;-68
2023/02/21 11:27:37;;;;;;;7.07;3.63;;;13.40;98.50;;;;;;5023396;28;20046;-69
2023/02/21 11:30:15;;;;;;;9.25;3.53;;;13.40;98.10;;;;;;5017410;28;20029;-68
2023/02/21 11:32:47;;;;;;;5.93;2.95;;;13.60;98.40;;;;;;5012722;28;20386;-71
2023/02/21 11:35:19;;;;;;;9.73;2.88;;;13.60;97.30;;;;;;5022070;28;20531;-68
2023/02/21 11:38:00;;;;;;;4.75;2.28;;;13.80;97.10;;;;;;5020925;28;20030;-73
2023/02/21 11:40:36;;;;;;;5.15;2.92;;;14.00;96.80;;;;;;5009951;28;20093;-70
2023/02/21 11:43:19;;;;;;;9.02;2.40;;;14.00;96.80;;;;;;5013235;28;20117;-68
2023/02/21 11:46:14;;;;;;;6.63;2.40;;;14.20;96.00;;;;;;5019621;28;20021;-71
2023/02/21 11:49:00;;;;;;;7.60;2.33;;;14.20;95.80;;;;;;5016063;28;20034;-71
2023/02/21 11:51:52;;;;;;;6.90;2.47;;;14.20;95.90;;;;;;5024752;28;20470;-68
2023/02/21 11:54:20;;;;;;;2.60;1.73;;;14.30;95.40;;;;;;5013280;28;20033;-68
2023/02/21 11:56:57;;;;;;;6.05;1.58;;;14.30;94.90;;;;;;5017387;28;20386;-70
2023/02/21 12:00:00;;;;;;;2.92;1.63;;;14.40;94.70;;;;;;5018148;28;20041;-69
2023/02/21 12:02:32;;;;;;;3.88;1.63;;;14.50;94.60;;;;;;5007012;28;20040;-69
2023/02/21 12:05:31;;;;;;;5.85;1.67;;;14.60;93.90;;;;;;5013876;28;20183;-69
2023/02/21 12:08:30;;;;;;;4.63;1.70;;;14.70;93.20;;;;;;5021815;28;20125;-69
2023/02/21 12:11:21;;;;;;;5.78;2.00;;;14.70;93.20;;;;;;5018267;28;20385;-68
2023/02/21 12:14:16;;;;;;;5.22;1.80;;;14.80;93.20;;;;;;5015481;28;20474;-69
2023/02/21 12:17:10;;;;;;;4.45;2.10;;;14.90;93.10;;;;;;5018195;28;20037;-73
2023/02/21 12:19:46;;;;;;;4.97;1.60;;;15.00;93.10;;;;;;5012577;28;20041;-68
2023/02/21 12:22:35;;;;;;;4.80;1.90;;;15.00;92.60;;;;;;5013082;28;20033;-69
2023/02/21 12:25:19;;;;;;;5.50;2.28;;;15.10;92.00;;;;;;5018727;28;20676;-69
2023/02/21 12:27:50;;;;;;;4.22;1.80;;;15.10;91.90;;;;;;5017777;28;20022;-73
2023/02/21 12:30:18;;;;;;;4.40;2.40;;;15.20;92.10;;;;;;5018148;28;20117;-69
2023/02/21 12:33:10;;;;;;;3.50;2.10;;;15.30;91.60;;;;;;5019308;28;20025;-73
2023/02/21 12:35:42;;;;;;;6.18;2.20;;;15.60;91.10;;;;;;4979484;28;20395;-69
2023/02/21 12:38:29;;;;;;;6.25;1.92;;;15.80;90.50;;;;;;5025473;28;20032;-70
2023/02/21 12:41:44;;;;;;;3.67;2.30;;;16.20;89.50;;;;;;5020678;28;20116;-68
2023/02/21 12:44:14;;;;;;;4.55;2.10;;;16.70;87.80;;;;;;4969963;28;20058;-70
2023/02/21 12:47:00;;;;;;;;;;;17.10;86.90;;;;;;5024097;28;20041;-70
2023/02/21 12:49:48;;;;;;;4.35;1.90;;;17.40;84.90;;;;;;5021249;28;20361;-69
2023/02/21 12:52:25;;;;;;;4.53;1.67;;;17.80;83.20;;;;;;5014202;28;20030;-68
2023/02/21 12:54:55;;;;;;;5.15;1.90;;;;;;;;;;5011456;28;20032;-69
2023/02/21 12:57:33;;;;;;;2.67;1.52;;;;;;;;;;5023794;28;20064;-69
2023/02/21 13:00:17;;;;;;;4.05;1.40;;;18.70;77.30;;;;;;5016418;28;20104;-68
2023/02/21 13:03:05;;;;;;;4.75;1.60;;;19.00;76.90;;;;;;5014564;28;20026;-72
2023/02/21 13:05:41;;;;;;;4.18;1.50;;;19.30;75.30;;;;;;5017272;28;20025;-69
2023/02/21 13:08:21;;;;;;;4.65;1.65;;;19.60;74.40;;;;;;5019711;28;20028;-69
2023/02/21 13:11:09;;;;;;;3.42;1.30;;;20.10;71.90;;;;;;5017002;28;20041;-69
2023/02/21 13:13:35;;;;;;;4.60;1.58;;;20.60;70.70;;;;;;5020741;28;20073;-69
2023/02/21 13:16:04;;;;;;;3.28;1.45;;;20.90;69.30;;;;;;5023914;28;20180;-69
2023/02/21 13:18:47;;;;;;;5.53;1.90;;;21.10;69.10;;;;;;5017613;28;20335;-68
2023/02/21 13:21:33;;;;;;;5.30;1.95;;;21.30;68.30;;;;;;5014320;28;20030;-69
2023/02/21 13:24:09;;;;;;;4.22;1.90;;;21.60;66.70;;;;;;5013249;28;20041;-68
2023/02/21 13:27:16;;;;;;;3.63;2.03;;;21.80;66.00;;;;;;5025617;28;20391;-68
2023/02/21 13:29:42;;;;;;;4.95;1.70;;;21.80;66.30;;;;;;5010646;28;20080;-72
2023/02/21 13:32:18;;;;;;;5.90;1.65;;;21.90;64.80;;;;;;5015748;28;20783;-69
2023/02/21 13:34:53;;;;;;;5.40;1.77;;;21.90;64.70;;;;;;5012283;28;20034;-72
2023/02/21 13:37:22;;;;;;;1.70;1.17;;;21.90;64.50;;;;;;5011701;28;20125;-69
2023/02/21 13:40:00;;;;;;;2.67;1.55;;;21.80;64.30;;;;;;5012974;28;20052;-70
2023/02/21 13:42:28;;;;;;;4.07;1.58;;;21.80;63.90;;;;;;5017694;28;20470;-68
2023/02/21 13:45:17;;;;;;;5.55;1.80;;;21.70;64.00;;;;;;5013959;28;20040;-70
2023/02/21 13:48:05;;;;;;;3.40;1.40;;;21.80;63.60;;;;;;5022191;28;20513;-72
2023/02/21 13:50:36;;;;;;;5.03;2.00;;;21.70;62.80;;;;;;5015270;28;20461;-69
2023/02/21 13:53:08;;;;;;;3.55;1.70;;;21.70;63.10;;;;;;5015392;28;20096;-69
2023/02/21 13:55:35;;;;;;;3.55;1.80;;;21.50;62.80;;;;;;5022169;28;20038;-69
2023/02/21 13:58:00;;;;;;;2.72;1.73;;;21.30;63.30;;;;;;5014000;28;20026;-69
2023/02/21 14:00:26;;;;;;;4.65;1.73;;;21.20;63.50;;;;;;5017427;28;20064;-69
2023/02/21 14:03:04;;;;;;;7.75;1.75;;;21.10;63.30;;;;;;5022888;28;20026;-69
2023/02/21 14:05:50;;;;;;;6.30;1.40;;;21.10;63.40;;;;;;5013908;28;20034;-69
2023/02/21 14:08:29;;;;;;;6.70;1.30;;;21.00;63.80;;;;;;5001685;28;20038;-69
2023/02/21 14:10:58;;;;;;;3.70;1.30;;;20.90;63.30;;;;;;5022987;28;20057;-69
2023/02/21 14:13:33;;;;;;;3.30;1.70;;;20.70;63.80;;;;;;5024323;28;20060;-69
2023/02/21 14:16:08;;;;;;;4.45;1.38;;;20.60;64.50;;;;;;5022042;28;20022;-68
2023/02/21 14:18:56;;;;;;;6.25;1.52;;;20.50;64.20;;;;;;5022587;28;20386;-69
2023/02/21 14:21:34;;;;;;;2.95;1.60;;;20.20;64.00;;;;;;5018655;28;20137;-69
2023/02/21 14:24:05;;;;;;;7.10;1.42;;;20.00;64.50;;;;;;5015629;28;20022;-69
2023/02/21 14:26:39;;;;;;;5.40;1.77;;;20.10;64.70;;;;;;5023459;28;20025;-69
2023/02/21 14:29:07;;;;;;;5.07;1.50;;;19.80;65.00;;;;;;5023532;28;20040;-69
2023/02/21 14:32:02;;;;;;;3.25;1.70;;;19.70;65.00;;;;;;5011385;28;20030;-68
2023/02/21 14:34:46;;;;;;;3.58;1.65;;;19.30;65.40;;;;;;5017714;28;20033;-69
2023/02/21 14:37:27;;;;;;;5.55;1.77;;;19.00;66.00;;;;;;5016630;28;20490;-69
2023/02/21 14:40:25;;;;;;;3.03;1.42;;;18.80;66.80;;;;;;5014672;28;20033;-70
2023/02/21 14:43:16;;;;;;;3.50;1.77;;;18.40;67.10;;;;;;5014894;28;20029;-69
2023/02/21 14:45:59;;;;;;;3.30;1.40;;;18.00;67.50;;;;;;5010262;28;20037;-72
2023/02/21 14:48:40;;;;;;;3.60;1.35;;;17.80;68.50;;;;;;5022308;28;20038;-68
2023/02/21 14:51:29;;;;;;;2.80;1.23;;;17.60;68.80;;;;;;5007992;28;20041;-71
2023/02/21 14:54:20;;;;;;;4.53;1.42;;;17.40;69.70;;;;;;5017371;28;20782;-73
2023/02/21 14:57:17;;;;;;;2.20;1.45;;;17.40;69.30;;;;;;5013391;28;20034;-74
2023/02/21 15:00:10;;;;;;;4.55;1.80;;;17.30;70.20;;;;;;5016167;28;20462;-77
2023/02/21 15:02:49;;;;;;;4.30;1.60;;;17.10;70.40;;;;;;5018076;28;20116;-69
2023/02/21 15:05:46;;;;;;;2.10;1.40;;;17.00;70.70;;;;;;5012992;28;20121;-69
2023/02/21 15:08:23;;;;;;;5.15;1.75;;;16.90;70.80;;;;;;4983246;28;20045;-69
2023/02/21 15:10:51;;;;;;;3.15;1.58;;;16.80;70.90;;;;;;5012549;28;20045;-69
2023/02/21 15:13:29;;;;;;;3.50;1.58;;;16.80;70.90;;;;;;5021073;28;20046;-69
2023/02/21 15:16:01;;;;;;;4.50;1.38;;;16.70;71.10;;;;;;5020812;28;20026;-68
2023/02/21 15:18:30;;;;;;;2.90;1.73;;;16.80;71.00;;;;;;5020214;28;20092;-69
2023/02/21 15:21:11;;;;;;;4.45;1.20;;;16.70;71.10;;;;;;5001950;28;20037;-70
2023/02/21 15:23:38;;;;;;;3.38;1.25;;;16.70;72.10;;;;;;5020557;28;20053;-69
2023/02/21 15:26:20;;;;;;;5.13;1.67;;;16.70;71.40;;;;;;5015599;28;20101;-69
2023/02/21 15:29:19;;;;;;;2.90;1.30;;;16.60;71.80;;;;;;5026084;28;20072;-75
2023/02/21 15:31:52;;;;;;;5.18;1.50;;;16.50;72.50;;;;;;5021465;28;20041;-74
2023/02/21 15:34:27;;;;;;;1.75;0.93;;;16.40;73.20;;;;;;5017650;28;20057;-68
2023/02/21 15:37:14;;;;;;;3.75;1.08;;;16.40;73.20;;;;;;5027177;28;20108;-68